sensor_id;sensor_type;location;lat;lon;timestamp;temperature;humidity
19555;DHT22;9924;50.828;6.440;2023-07-13T00:02:15;14.90;99.90
19555;DHT22;9924;50.828;6.440;2023-07-13T00:04:41;14.90;99.90
19555;DHT22;9924;50.828;6.440;2023-07-13T00:07:07;14.90;99.90
19555;DHT22;9924;50.828;6.440;2023-07-13T00:09:34;14.80;99.90
19555;DHT22;9924;50.828;6.440;2023-07-13T00:12:00;14.80;99.90
19555;DHT22;9924;50.828;6.440;2023-07-13T00:14:28;14.80;99.90
19555;DHT22;9924;50.828;6.440;2023-07-13T00:16:54;14.80;99.90
19555;DHT22;9924;50.828;6.440;2023-07-13T00:19:20;14.80;99.90
19555;DHT22;9924;50.828;6.440;2023-07-13T00:21:46;14.70;99.90
19555;DHT22;9924;50.828;6.440;2023-07-13T00:24:15;14.70;99.90
19555;DHT22;9924;50.828;6.440;2023-07-13T00:26:42;14.70;99.90
19555;DHT22;9924;50.828;6.440;2023-07-13T00:29:12;14.70;99.90
19555;DHT22;9924;50.828;6.440;2023-07-13T00:31:39;14.60;99.90
19555;DHT22;9924;50.828;6.440;2023-07-13T00:34:05;14.60;99.90
19555;DHT22;9924;50.828;6.440;2023-07-13T00:36:31;14.60;99.90
19555;DHT22;9924;50.828;6.440;2023-07-13T00:38:57;14.50;99.90
19555;DHT22;9924;50.828;6.440;2023-07-13T00:41:23;14.50;99.90
19555;DHT22;9924;50.828;6.440;2023-07-13T00:43:48;14.50;99.90
19555;DHT22;9924;50.828;6.440;2023-07-13T00:46:19;14.60;99.90
19555;DHT22;9924;50.828;6.440;2023-07-13T00:48:46;14.60;99.90
19555;DHT22;9924;50.828;6.440;2023-07-13T00:51:15;14.60;99.90
19555;DHT22;9924;50.828;6.440;2023-07-13T00:53:42;14.60;99.90
19555;DHT22;9924;50.828;6.440;2023-07-13T00:56:08;14.60;99.90
19555;DHT22;9924;50.828;6.440;2023-07-13T00:58:35;14.60;99.90
19555;DHT22;9924;50.828;6.440;2023-07-13T01:01:01;14.60;99.90
19555;DHT22;9924;50.828;6.440;2023-07-13T01:03:27;14.50;99.90
19555;DHT22;9924;50.828;6.440;2023-07-13T01:05:53;14.50;99.90
19555;DHT22;9924;50.828;6.440;2023-07-13T01:08:20;14.40;99.90
19555;DHT22;9924;50.828;6.440;2023-07-13T01:10:56;14.40;99.90
19555;DHT22;9924;50.828;6.440;2023-07-13T01:13:23;14.40;99.90
19555;DHT22;9924;50.828;6.440;2023-07-13T01:15:51;14.40;99.90
19555;DHT22;9924;50.828;6.440;2023-07-13T01:18:27;14.40;99.90
19555;DHT22;9924;50.828;6.440;2023-07-13T01:21:02;14.40;99.90
19555;DHT22;9924;50.828;6.440;2023-07-13T01:23:29;14.30;99.90
19555;DHT22;9924;50.828;6.440;2023-07-13T01:25:56;14.30;99.90
19555;DHT22;9924;50.828;6.440;2023-07-13T01:28:23;14.30;99.90
19555;DHT22;9924;50.828;6.440;2023-07-13T01:30:54;14.30;99.90
19555;DHT22;9924;50.828;6.440;2023-07-13T01:33:20;14.20;99.90
19555;DHT22;9924;50.828;6.440;2023-07-13T01:35:46;14.20;99.90
19555;DHT22;9924;50.828;6.440;2023-07-13T01:38:15;14.20;99.90
19555;DHT22;9924;50.828;6.440;2023-07-13T01:40:42;14.10;99.90
19555;DHT22;9924;50.828;6.440;2023-07-13T01:43:07;14.10;99.90
19555;DHT22;9924;50.828;6.440;2023-07-13T01:45:33;14.00;99.90
19555;DHT22;9924;50.828;6.440;2023-07-13T01:48:00;13.90;99.90
19555;DHT22;9924;50.828;6.440;2023-07-13T01:50:26;13.90;99.90
19555;DHT22;9924;50.828;6.440;2023-07-13T01:52:53;13.80;99.90
19555;DHT22;9924;50.828;6.440;2023-07-13T01:55:20;13.80;99.90
19555;DHT22;9924;50.828;6.440;2023-07-13T01:57:46;13.80;99.90
19555;DHT22;9924;50.828;6.440;2023-07-13T02:00:13;13.80;99.90
19555;DHT22;9924;50.828;6.440;2023-07-13T02:02:38;13.80;99.90
19555;DHT22;9924;50.828;6.440;2023-07-13T02:05:05;13.80;99.90
19555;DHT22;9924;50.828;6.440;2023-07-13T02:07:31;13.90;99.90
19555;DHT22;9924;50.828;6.440;2023-07-13T02:09:57;13.90;99.90
19555;DHT22;9924;50.828;6.440;2023-07-13T02:12:23;13.90;99.90
19555;DHT22;9924;50.828;6.440;2023-07-13T02:14:49;13.90;99.90
19555;DHT22;9924;50.828;6.440;2023-07-13T02:17:15;13.90;99.90
19555;DHT22;9924;50.828;6.440;2023-07-13T02:19:41;13.90;99.90
19555;DHT22;9924;50.828;6.440;2023-07-13T02:22:07;13.90;99.90
19555;DHT22;9924;50.828;6.440;2023-07-13T02:24:33;14.00;99.90
19555;DHT22;9924;50.828;6.440;2023-07-13T02:26:58;14.00;99.90
19555;DHT22;9924;50.828;6.440;2023-07-13T02:29:24;14.00;99.90
19555;DHT22;9924;50.828;6.440;2023-07-13T02:31:50;14.10;99.90
19555;DHT22;9924;50.828;6.440;2023-07-13T02:34:16;14.00;99.90
19555;DHT22;9924;50.828;6.440;2023-07-13T02:36:42;14.00;99.90
19555;DHT22;9924;50.828;6.440;2023-07-13T02:39:09;14.00;99.90
19555;DHT22;9924;50.828;6.440;2023-07-13T02:41:36;14.10;99.90
19555;DHT22;9924;50.828;6.440;2023-07-13T02:44:02;14.20;99.90
19555;DHT22;9924;50.828;6.440;2023-07-13T02:46:37;14.20;99.90
19555;DHT22;9924;50.828;6.440;2023-07-13T02:49:03;14.20;99.90
19555;DHT22;9924;50.828;6.440;2023-07-13T02:51:29;14.20;99.90
19555;DHT22;9924;50.828;6.440;2023-07-13T02:53:55;14.20;99.90
19555;DHT22;9924;50.828;6.440;2023-07-13T02:56:26;14.20;99.90
19555;DHT22;9924;50.828;6.440;2023-07-13T02:58:53;14.30;99.90
19555;DHT22;9924;50.828;6.440;2023-07-13T03:01:19;14.40;99.90
19555;DHT22;9924;50.828;6.440;2023-07-13T03:03:46;14.50;99.90
19555;DHT22;9924;50.828;6.440;2023-07-13T03:06:12;14.60;99.90
19555;DHT22;9924;50.828;6.440;2023-07-13T03:08:38;14.60;99.90
19555;DHT22;9924;50.828;6.440;2023-07-13T03:11:07;14.70;99.90
19555;DHT22;9924;50.828;6.440;2023-07-13T03:13:34;14.70;99.90
19555;DHT22;9924;50.828;6.440;2023-07-13T03:16:01;14.80;99.90
19555;DHT22;9924;50.828;6.440;2023-07-13T03:18:27;14.80;99.90
19555;DHT22;9924;50.828;6.440;2023-07-13T03:20:53;14.80;99.90
19555;DHT22;9924;50.828;6.440;2023-07-13T03:23:20;14.80;99.90
19555;DHT22;9924;50.828;6.440;2023-07-13T03:25:46;14.80;99.90
19555;DHT22;9924;50.828;6.440;2023-07-13T03:28:12;14.80;99.90
19555;DHT22;9924;50.828;6.440;2023-07-13T03:30:38;14.70;99.90
19555;DHT22;9924;50.828;6.440;2023-07-13T03:33:04;14.80;99.90
19555;DHT22;9924;50.828;6.440;2023-07-13T03:35:31;14.80;99.90
19555;DHT22;9924;50.828;6.440;2023-07-13T03:37:58;14.80;99.90
19555;DHT22;9924;50.828;6.440;2023-07-13T03:40:25;14.80;99.90
19555;DHT22;9924;50.828;6.440;2023-07-13T03:42:52;14.90;99.90
19555;DHT22;9924;50.828;6.440;2023-07-13T03:45:18;14.90;99.90
19555;DHT22;9924;50.828;6.440;2023-07-13T03:47:44;14.90;99.90
19555;DHT22;9924;50.828;6.440;2023-07-13T03:50:10;14.90;99.90
19555;DHT22;9924;50.828;6.440;2023-07-13T03:52:36;14.80;99.90
19555;DHT22;9924;50.828;6.440;2023-07-13T03:55:03;14.80;99.90
19555;DHT22;9924;50.828;6.440;2023-07-13T03:57:29;14.90;99.90
19555;DHT22;9924;50.828;6.440;2023-07-13T03:59:55;14.90;99.90
19555;DHT22;9924;50.828;6.440;2023-07-13T04:02:21;14.90;99.90
19555;DHT22;9924;50.828;6.440;2023-07-13T04:04:47;14.90;99.90
19555;DHT22;9924;50.828;6.440;2023-07-13T04:07:13;15.00;99.90
19555;DHT22;9924;50.828;6.440;2023-07-13T04:09:38;15.00;99.90
19555;DHT22;9924;50.828;6.440;2023-07-13T04:12:05;15.00;99.90
19555;DHT22;9924;50.828;6.440;2023-07-13T04:14:31;15.00;99.90
19555;DHT22;9924;50.828;6.440;2023-07-13T04:16:57;15.00;99.90
19555;DHT22;9924;50.828;6.440;2023-07-13T04:19:23;15.10;99.90
19555;DHT22;9924;50.828;6.440;2023-07-13T04:21:49;15.10;99.90
19555;DHT22;9924;50.828;6.440;2023-07-13T04:24:15;15.10;99.90
19555;DHT22;9924;50.828;6.440;2023-07-13T04:26:40;15.20;99.90
19555;DHT22;9924;50.828;6.440;2023-07-13T04:29:07;15.30;99.90
19555;DHT22;9924;50.828;6.440;2023-07-13T04:31:33;15.30;99.90
19555;DHT22;9924;50.828;6.440;2023-07-13T04:33:59;15.40;99.90
19555;DHT22;9924;50.828;6.440;2023-07-13T04:36:25;15.40;99.90
19555;DHT22;9924;50.828;6.440;2023-07-13T04:38:54;15.50;99.90
19555;DHT22;9924;50.828;6.440;2023-07-13T04:41:21;15.60;99.90
19555;DHT22;9924;50.828;6.440;2023-07-13T04:43:48;15.60;99.90
19555;DHT22;9924;50.828;6.440;2023-07-13T04:46:15;15.70;99.90
19555;DHT22;9924;50.828;6.440;2023-07-13T04:48:43;15.70;99.90
19555;DHT22;9924;50.828;6.440;2023-07-13T04:51:09;15.70;99.90
19555;DHT22;9924;50.828;6.440;2023-07-13T04:53:35;15.80;99.90
19555;DHT22;9924;50.828;6.440;2023-07-13T04:56:02;15.90;99.90
19555;DHT22;9924;50.828;6.440;2023-07-13T04:58:28;15.90;99.90
19555;DHT22;9924;50.828;6.440;2023-07-13T05:01:01;15.90;99.90
19555;DHT22;9924;50.828;6.440;2023-07-13T05:03:27;16.00;99.90
19555;DHT22;9924;50.828;6.440;2023-07-13T05:06:00;16.10;99.90
19555;DHT22;9924;50.828;6.440;2023-07-13T05:08:26;16.10;99.90
19555;DHT22;9924;50.828;6.440;2023-07-13T05:10:53;16.20;99.90
19555;DHT22;9924;50.828;6.440;2023-07-13T05:13:19;16.20;99.90
19555;DHT22;9924;50.828;6.440;2023-07-13T05:15:45;16.30;99.90
19555;DHT22;9924;50.828;6.440;2023-07-13T05:18:11;16.30;99.90
19555;DHT22;9924;50.828;6.440;2023-07-13T05:20:37;16.50;99.90
19555;DHT22;9924;50.828;6.440;2023-07-13T05:23:03;16.60;99.90
19555;DHT22;9924;50.828;6.440;2023-07-13T05:25:29;16.70;99.90
19555;DHT22;9924;50.828;6.440;2023-07-13T05:27:55;16.70;99.90
19555;DHT22;9924;50.828;6.440;2023-07-13T05:30:21;16.70;99.90
19555;DHT22;9924;50.828;6.440;2023-07-13T05:32:46;16.80;99.90
19555;DHT22;9924;50.828;6.440;2023-07-13T05:35:12;16.70;99.90
19555;DHT22;9924;50.828;6.440;2023-07-13T05:37:38;16.70;99.90
19555;DHT22;9924;50.828;6.440;2023-07-13T05:40:05;16.80;99.90
19555;DHT22;9924;50.828;6.440;2023-07-13T05:42:31;16.80;99.90
19555;DHT22;9924;50.828;6.440;2023-07-13T05:44:57;16.80;99.90
19555;DHT22;9924;50.828;6.440;2023-07-13T05:47:23;16.90;99.90
19555;DHT22;9924;50.828;6.440;2023-07-13T05:49:49;16.90;99.90
19555;DHT22;9924;50.828;6.440;2023-07-13T05:52:15;16.90;99.90
19555;DHT22;9924;50.828;6.440;2023-07-13T05:54:41;17.00;99.90
19555;DHT22;9924;50.828;6.440;2023-07-13T05:57:07;17.00;99.90
19555;DHT22;9924;50.828;6.440;2023-07-13T05:59:32;17.00;99.90
19555;DHT22;9924;50.828;6.440;2023-07-13T06:01:58;17.10;99.90
19555;DHT22;9924;50.828;6.440;2023-07-13T06:04:24;17.10;99.90
19555;DHT22;9924;50.828;6.440;2023-07-13T06:06:50;17.20;99.90
19555;DHT22;9924;50.828;6.440;2023-07-13T06:09:16;17.20;99.90
19555;DHT22;9924;50.828;6.440;2023-07-13T06:11:42;17.20;99.90
19555;DHT22;9924;50.828;6.440;2023-07-13T06:14:08;17.30;99.90
19555;DHT22;9924;50.828;6.440;2023-07-13T06:16:34;17.30;99.90
19555;DHT22;9924;50.828;6.440;2023-07-13T06:19:00;17.40;99.90
19555;DHT22;9924;50.828;6.440;2023-07-13T06:21:27;17.50;99.90
19555;DHT22;9924;50.828;6.440;2023-07-13T06:23:53;17.70;99.90
19555;DHT22;9924;50.828;6.440;2023-07-13T06:26:20;17.90;99.90
19555;DHT22;9924;50.828;6.440;2023-07-13T06:28:46;18.10;99.90
19555;DHT22;9924;50.828;6.440;2023-07-13T06:31:13;18.40;99.90
19555;DHT22;9924;50.828;6.440;2023-07-13T06:33:40;18.40;99.90
19555;DHT22;9924;50.828;6.440;2023-07-13T06:36:07;18.40;99.90
19555;DHT22;9924;50.828;6.440;2023-07-13T06:38:34;18.40;99.90
19555;DHT22;9924;50.828;6.440;2023-07-13T06:41:00;18.50;99.90
19555;DHT22;9924;50.828;6.440;2023-07-13T06:43:27;18.50;99.90
19555;DHT22;9924;50.828;6.440;2023-07-13T06:46:01;18.40;99.90
19555;DHT22;9924;50.828;6.440;2023-07-13T06:48:28;18.40;99.90
19555;DHT22;9924;50.828;6.440;2023-07-13T06:50:57;18.60;99.90
19555;DHT22;9924;50.828;6.440;2023-07-13T06:53:23;18.70;99.90
19555;DHT22;9924;50.828;6.440;2023-07-13T06:55:49;18.60;99.90
19555;DHT22;9924;50.828;6.440;2023-07-13T06:58:17;18.50;99.90
19555;DHT22;9924;50.828;6.440;2023-07-13T07:00:43;18.60;99.90
19555;DHT22;9924;50.828;6.440;2023-07-13T07:03:09;18.70;99.90
19555;DHT22;9924;50.828;6.440;2023-07-13T07:05:35;18.90;99.90
19555;DHT22;9924;50.828;6.440;2023-07-13T07:08:10;19.00;99.90
19555;DHT22;9924;50.828;6.440;2023-07-13T07:10:35;19.00;99.90
19555;DHT22;9924;50.828;6.440;2023-07-13T07:13:02;18.90;99.90
19555;DHT22;9924;50.828;6.440;2023-07-13T07:15:28;19.00;99.90
19555;DHT22;9924;50.828;6.440;2023-07-13T07:17:53;19.20;99.90
19555;DHT22;9924;50.828;6.440;2023-07-13T07:20:19;19.30;99.90
19555;DHT22;9924;50.828;6.440;2023-07-13T07:22:46;19.40;99.90
19555;DHT22;9924;50.828;6.440;2023-07-13T07:25:12;19.50;99.90
19555;DHT22;9924;50.828;6.440;2023-07-13T07:27:38;19.70;99.90
19555;DHT22;9924;50.828;6.440;2023-07-13T07:30:05;19.90;99.90
19555;DHT22;9924;50.828;6.440;2023-07-13T07:32:31;20.10;99.90
19555;DHT22;9924;50.828;6.440;2023-07-13T07:34:59;20.40;99.90
19555;DHT22;9924;50.828;6.440;2023-07-13T07:37:26;20.60;99.90
19555;DHT22;9924;50.828;6.440;2023-07-13T07:39:52;20.50;99.90
19555;DHT22;9924;50.828;6.440;2023-07-13T07:42:18;20.40;99.90
19555;DHT22;9924;50.828;6.440;2023-07-13T07:44:44;20.40;99.90
19555;DHT22;9924;50.828;6.440;2023-07-13T07:47:09;20.50;99.90
19555;DHT22;9924;50.828;6.440;2023-07-13T07:49:36;20.60;99.90
19555;DHT22;9924;50.828;6.440;2023-07-13T07:52:02;20.70;99.90
19555;DHT22;9924;50.828;6.440;2023-07-13T07:54:28;21.00;99.90
19555;DHT22;9924;50.828;6.440;2023-07-13T07:56:54;21.10;99.90
19555;DHT22;9924;50.828;6.440;2023-07-13T07:59:20;21.00;99.90
19555;DHT22;9924;50.828;6.440;2023-07-13T08:01:46;20.90;99.90
19555;DHT22;9924;50.828;6.440;2023-07-13T08:04:13;21.00;99.90
19555;DHT22;9924;50.828;6.440;2023-07-13T08:06:39;21.20;99.90
19555;DHT22;9924;50.828;6.440;2023-07-13T08:09:05;21.30;99.90
19555;DHT22;9924;50.828;6.440;2023-07-13T08:11:31;21.60;99.90
19555;DHT22;9924;50.828;6.440;2023-07-13T08:13:57;22.00;99.90
19555;DHT22;9924;50.828;6.440;2023-07-13T08:16:23;22.20;99.90
19555;DHT22;9924;50.828;6.440;2023-07-13T08:18:49;22.30;99.90
19555;DHT22;9924;50.828;6.440;2023-07-13T08:21:15;22.20;99.90
19555;DHT22;9924;50.828;6.440;2023-07-13T08:23:41;22.00;99.90
19555;DHT22;9924;50.828;6.440;2023-07-13T08:26:08;22.00;99.90
19555;DHT22;9924;50.828;6.440;2023-07-13T08:28:34;22.10;99.90
19555;DHT22;9924;50.828;6.440;2023-07-13T08:31:04;22.00;99.90
19555;DHT22;9924;50.828;6.440;2023-07-13T08:33:30;21.70;99.90
19555;DHT22;9924;50.828;6.440;2023-07-13T08:35:56;21.30;99.90
19555;DHT22;9924;50.828;6.440;2023-07-13T08:38:22;21.20;99.90
19555;DHT22;9924;50.828;6.440;2023-07-13T08:40:53;21.00;99.90
19555;DHT22;9924;50.828;6.440;2023-07-13T08:43:27;20.90;99.90
19555;DHT22;9924;50.828;6.440;2023-07-13T08:46:04;20.70;99.90
19555;DHT22;9924;50.828;6.440;2023-07-13T08:48:41;20.70;99.90
19555;DHT22;9924;50.828;6.440;2023-07-13T08:54:02;20.50;99.90
19555;DHT22;9924;50.828;6.440;2023-07-13T08:56:29;20.70;99.90
19555;DHT22;9924;50.828;6.440;2023-07-13T08:58:58;21.10;99.90
19555;DHT22;9924;50.828;6.440;2023-07-13T09:04:26;21.90;99.90
19555;DHT22;9924;50.828;6.440;2023-07-13T09:07:14;21.80;99.90
19555;DHT22;9924;50.828;6.440;2023-07-13T09:12:39;21.60;99.90
19555;DHT22;9924;50.828;6.440;2023-07-13T09:15:36;21.70;99.90
19555;DHT22;9924;50.828;6.440;2023-07-13T09:18:10;22.00;99.90
19555;DHT22;9924;50.828;6.440;2023-07-13T09:23:14;22.90;99.90
19555;DHT22;9924;50.828;6.440;2023-07-13T09:25:40;23.10;99.90
19555;DHT22;9924;50.828;6.440;2023-07-13T09:28:39;23.10;99.90
19555;DHT22;9924;50.828;6.440;2023-07-13T09:31:10;23.20;99.90
19555;DHT22;9924;50.828;6.440;2023-07-13T09:33:38;23.20;99.90
19555;DHT22;9924;50.828;6.440;2023-07-13T09:36:25;23.10;99.90
19555;DHT22;9924;50.828;6.440;2023-07-13T09:39:03;23.10;99.90
19555;DHT22;9924;50.828;6.440;2023-07-13T09:44:48;23.40;99.90
19555;DHT22;9924;50.828;6.440;2023-07-13T09:47:19;23.80;99.90
19555;DHT22;9924;50.828;6.440;2023-07-13T09:49:45;24.10;99.90
19555;DHT22;9924;50.828;6.440;2023-07-13T09:52:13;24.20;99.90
19555;DHT22;9924;50.828;6.440;2023-07-13T09:54:44;24.20;99.90
19555;DHT22;9924;50.828;6.440;2023-07-13T09:57:15;24.60;99.90
19555;DHT22;9924;50.828;6.440;2023-07-13T09:59:47;24.20;99.90
19555;DHT22;9924;50.828;6.440;2023-07-13T10:02:33;24.30;99.90
19555;DHT22;9924;50.828;6.440;2023-07-13T10:05:10;24.20;99.90
19555;DHT22;9924;50.828;6.440;2023-07-13T10:07:43;23.80;99.90
19555;DHT22;9924;50.828;6.440;2023-07-13T10:10:22;23.60;99.90
19555;DHT22;9924;50.828;6.440;2023-07-13T10:12:49;23.70;99.90
19555;DHT22;9924;50.828;6.440;2023-07-13T10:15:22;23.90;99.90
19555;DHT22;9924;50.828;6.440;2023-07-13T10:17:54;24.10;99.90
19555;DHT22;9924;50.828;6.440;2023-07-13T10:20:21;24.10;99.90
19555;DHT22;9924;50.828;6.440;2023-07-13T10:23:02;24.10;99.90
19555;DHT22;9924;50.828;6.440;2023-07-13T10:25:34;23.90;99.90
19555;DHT22;9924;50.828;6.440;2023-07-13T10:28:25;23.70;99.90
19555;DHT22;9924;50.828;6.440;2023-07-13T10:30:53;23.50;99.90
19555;DHT22;9924;50.828;6.440;2023-07-13T10:33:19;23.50;99.90
19555;DHT22;9924;50.828;6.440;2023-07-13T10:35:46;23.90;99.90
19555;DHT22;9924;50.828;6.440;2023-07-13T10:38:20;24.30;99.90
19555;DHT22;9924;50.828;6.440;2023-07-13T10:41:01;24.40;99.90
19555;DHT22;9924;50.828;6.440;2023-07-13T10:43:42;24.20;99.90
19555;DHT22;9924;50.828;6.440;2023-07-13T10:46:12;24.00;99.90
19555;DHT22;9924;50.828;6.440;2023-07-13T10:48:40;23.90;99.90
19555;DHT22;9924;50.828;6.440;2023-07-13T10:51:08;24.00;99.90
19555;DHT22;9924;50.828;6.440;2023-07-13T10:53:36;23.90;99.90
19555;DHT22;9924;50.828;6.440;2023-07-13T10:58:41;23.60;99.90
19555;DHT22;9924;50.828;6.440;2023-07-13T11:01:17;23.50;99.90
19555;DHT22;9924;50.828;6.440;2023-07-13T11:06:15;23.10;99.90
19555;DHT22;9924;50.828;6.440;2023-07-13T11:18:51;23.10;99.90
19555;DHT22;9924;50.828;6.440;2023-07-13T11:21:26;22.90;99.90
19555;DHT22;9924;50.828;6.440;2023-07-13T11:24:12;22.70;99.90
19555;DHT22;9924;50.828;6.440;2023-07-13T11:31:50;22.90;99.90
19555;DHT22;9924;50.828;6.440;2023-07-13T11:34:20;23.10;99.90
19555;DHT22;9924;50.828;6.440;2023-07-13T11:36:47;23.30;99.90
19555;DHT22;9924;50.828;6.440;2023-07-13T11:44:22;24.40;99.90
19555;DHT22;9924;50.828;6.440;2023-07-13T11:46:51;24.40;99.90
19555;DHT22;9924;50.828;6.440;2023-07-13T11:49:22;24.00;99.90
19555;DHT22;9924;50.828;6.440;2023-07-13T11:51:48;23.60;99.90
19555;DHT22;9924;50.828;6.440;2023-07-13T11:54:33;23.20;99.90
19555;DHT22;9924;50.828;6.440;2023-07-13T11:57:02;22.90;99.90
19555;DHT22;9924;50.828;6.440;2023-07-13T11:59:32;22.60;99.90
19555;DHT22;9924;50.828;6.440;2023-07-13T12:01:59;22.50;99.90
19555;DHT22;9924;50.828;6.440;2023-07-13T12:04:29;22.60;99.90
19555;DHT22;9924;50.828;6.440;2023-07-13T12:07:19;22.60;99.90
19555;DHT22;9924;50.828;6.440;2023-07-13T12:09:45;22.80;99.90
19555;DHT22;9924;50.828;6.440;2023-07-13T12:12:18;22.80;99.90
19555;DHT22;9924;50.828;6.440;2023-07-13T12:14:44;22.90;99.90
19555;DHT22;9924;50.828;6.440;2023-07-13T12:17:16;22.90;99.90
19555;DHT22;9924;50.828;6.440;2023-07-13T12:19:42;23.00;99.90
19555;DHT22;9924;50.828;6.440;2023-07-13T12:22:12;23.40;99.90
19555;DHT22;9924;50.828;6.440;2023-07-13T12:24:40;23.70;99.90
19555;DHT22;9924;50.828;6.440;2023-07-13T12:27:18;24.10;99.90
19555;DHT22;9924;50.828;6.440;2023-07-13T12:29:52;24.70;99.90
19555;DHT22;9924;50.828;6.440;2023-07-13T12:32:19;25.40;99.90
19555;DHT22;9924;50.828;6.440;2023-07-13T12:34:56;25.80;99.90
19555;DHT22;9924;50.828;6.440;2023-07-13T12:37:23;26.10;99.90
19555;DHT22;9924;50.828;6.440;2023-07-13T12:39:49;26.40;99.90
19555;DHT22;9924;50.828;6.440;2023-07-13T12:42:25;26.70;99.90
19555;DHT22;9924;50.828;6.440;2023-07-13T12:47:42;26.90;99.90
19555;DHT22;9924;50.828;6.440;2023-07-13T12:50:16;27.20;99.80
19555;DHT22;9924;50.828;6.440;2023-07-13T12:52:43;27.20;99.90
19555;DHT22;9924;50.828;6.440;2023-07-13T12:55:16;27.20;99.20
19555;DHT22;9924;50.828;6.440;2023-07-13T12:57:57;27.30;99.30
19555;DHT22;9924;50.828;6.440;2023-07-13T13:00:25;27.40;99.20
19555;DHT22;9924;50.828;6.440;2023-07-13T13:02:54;27.20;98.40
19555;DHT22;9924;50.828;6.440;2023-07-13T13:05:21;27.10;99.10
19555;DHT22;9924;50.828;6.440;2023-07-13T13:07:50;27.40;98.70
19555;DHT22;9924;50.828;6.440;2023-07-13T13:10:16;27.80;98.30
19555;DHT22;9924;50.828;6.440;2023-07-13T13:12:41;27.70;98.20
19555;DHT22;9924;50.828;6.440;2023-07-13T13:15:11;27.70;97.60
19555;DHT22;9924;50.828;6.440;2023-07-13T13:17:40;27.90;97.30
19555;DHT22;9924;50.828;6.440;2023-07-13T13:20:17;27.50;97.50
19555;DHT22;9924;50.828;6.440;2023-07-13T13:22:43;27.10;98.30
19555;DHT22;9924;50.828;6.440;2023-07-13T13:25:11;27.20;97.70
19555;DHT22;9924;50.828;6.440;2023-07-13T13:27:37;26.90;97.90
19555;DHT22;9924;50.828;6.440;2023-07-13T13:30:13;27.00;98.30
19555;DHT22;9924;50.828;6.440;2023-07-13T13:32:40;27.40;97.40
19555;DHT22;9924;50.828;6.440;2023-07-13T13:35:13;27.50;97.00
19555;DHT22;9924;50.828;6.440;2023-07-13T13:37:39;27.50;97.90
19555;DHT22;9924;50.828;6.440;2023-07-13T13:40:14;27.40;97.90
19555;DHT22;9924;50.828;6.440;2023-07-13T13:42:40;26.90;98.60
19555;DHT22;9924;50.828;6.440;2023-07-13T13:45:11;26.40;98.90
19555;DHT22;9924;50.828;6.440;2023-07-13T13:47:39;26.10;98.70
19555;DHT22;9924;50.828;6.440;2023-07-13T13:52:37;26.50;97.80
19555;DHT22;9924;50.828;6.440;2023-07-13T13:55:14;26.60;97.90
19555;DHT22;9924;50.828;6.440;2023-07-13T13:57:40;26.80;98.20
19555;DHT22;9924;50.828;6.440;2023-07-13T14:00:08;27.00;97.50
19555;DHT22;9924;50.828;6.440;2023-07-13T14:02:34;27.00;97.40
19555;DHT22;9924;50.828;6.440;2023-07-13T14:05:02;27.10;97.30
19555;DHT22;9924;50.828;6.440;2023-07-13T14:07:29;27.20;97.90
19555;DHT22;9924;50.828;6.440;2023-07-13T14:09:58;27.10;97.60
19555;DHT22;9924;50.828;6.440;2023-07-13T14:12:26;27.00;97.20
19555;DHT22;9924;50.828;6.440;2023-07-13T14:14:55;27.00;97.60
19555;DHT22;9924;50.828;6.440;2023-07-13T14:17:25;27.30;97.60
19555;DHT22;9924;50.828;6.440;2023-07-13T14:19:52;27.00;97.30
19555;DHT22;9924;50.828;6.440;2023-07-13T14:22:23;26.90;98.00
19555;DHT22;9924;50.828;6.440;2023-07-13T14:24:51;27.10;97.70
19555;DHT22;9924;50.828;6.440;2023-07-13T14:27:17;27.20;97.30
19555;DHT22;9924;50.828;6.440;2023-07-13T14:29:43;27.30;97.30
19555;DHT22;9924;50.828;6.440;2023-07-13T14:32:10;27.50;96.50
19555;DHT22;9924;50.828;6.440;2023-07-13T14:34:37;27.40;96.60
19555;DHT22;9924;50.828;6.440;2023-07-13T14:37:03;27.30;96.80
19555;DHT22;9924;50.828;6.440;2023-07-13T14:39:30;27.10;96.80
19555;DHT22;9924;50.828;6.440;2023-07-13T14:41:57;26.70;97.20
19555;DHT22;9924;50.828;6.440;2023-07-13T14:44:28;26.60;97.30
19555;DHT22;9924;50.828;6.440;2023-07-13T14:46:58;26.40;97.50
19555;DHT22;9924;50.828;6.440;2023-07-13T14:49:28;26.00;98.40
19555;DHT22;9924;50.828;6.440;2023-07-13T14:51:56;26.00;98.30
19555;DHT22;9924;50.828;6.440;2023-07-13T14:54:23;25.70;98.20
19555;DHT22;9924;50.828;6.440;2023-07-13T14:56:49;25.50;98.10
19555;DHT22;9924;50.828;6.440;2023-07-13T14:59:14;25.40;98.50
19555;DHT22;9924;50.828;6.440;2023-07-13T15:01:40;25.40;98.70
19555;DHT22;9924;50.828;6.440;2023-07-13T15:04:06;25.30;98.90
19555;DHT22;9924;50.828;6.440;2023-07-13T15:07:01;25.20;98.80
19555;DHT22;9924;50.828;6.440;2023-07-13T15:09:28;24.90;99.40
19555;DHT22;9924;50.828;6.440;2023-07-13T15:11:57;24.80;99.90
19555;DHT22;9924;50.828;6.440;2023-07-13T15:14:24;24.80;99.40
19555;DHT22;9924;50.828;6.440;2023-07-13T15:16:53;24.60;99.50
19555;DHT22;9924;50.828;6.440;2023-07-13T15:19:19;24.50;99.90
19555;DHT22;9924;50.828;6.440;2023-07-13T15:21:47;24.40;99.90
19555;DHT22;9924;50.828;6.440;2023-07-13T15:24:13;24.20;99.90
19555;DHT22;9924;50.828;6.440;2023-07-13T15:26:39;24.00;99.90
19555;DHT22;9924;50.828;6.440;2023-07-13T15:29:05;23.70;99.90
19555;DHT22;9924;50.828;6.440;2023-07-13T15:31:32;23.50;99.90
19555;DHT22;9924;50.828;6.440;2023-07-13T15:33:59;23.40;99.90
19555;DHT22;9924;50.828;6.440;2023-07-13T15:36:26;23.10;99.90
19555;DHT22;9924;50.828;6.440;2023-07-13T15:38:54;22.80;99.90
19555;DHT22;9924;50.828;6.440;2023-07-13T15:41:24;22.50;99.90
19555;DHT22;9924;50.828;6.440;2023-07-13T15:43:52;22.10;99.90
19555;DHT22;9924;50.828;6.440;2023-07-13T15:46:19;21.90;99.90
19555;DHT22;9924;50.828;6.440;2023-07-13T15:48:46;21.90;99.90
19555;DHT22;9924;50.828;6.440;2023-07-13T15:51:22;21.80;99.90
19555;DHT22;9924;50.828;6.440;2023-07-13T15:53:48;21.80;99.90
19555;DHT22;9924;50.828;6.440;2023-07-13T15:56:26;21.70;99.90
19555;DHT22;9924;50.828;6.440;2023-07-13T15:58:52;21.70;99.90
19555;DHT22;9924;50.828;6.440;2023-07-13T16:01:19;21.70;99.90
19555;DHT22;9924;50.828;6.440;2023-07-13T16:03:46;21.70;99.90
19555;DHT22;9924;50.828;6.440;2023-07-13T16:06:22;21.70;99.90
19555;DHT22;9924;50.828;6.440;2023-07-13T16:08:49;21.70;99.90
19555;DHT22;9924;50.828;6.440;2023-07-13T16:11:25;21.70;99.90
19555;DHT22;9924;50.828;6.440;2023-07-13T16:13:52;21.70;99.90
19555;DHT22;9924;50.828;6.440;2023-07-13T16:16:25;21.60;99.90
19555;DHT22;9924;50.828;6.440;2023-07-13T16:18:56;21.60;99.90
19555;DHT22;9924;50.828;6.440;2023-07-13T16:21:23;21.80;99.90
19555;DHT22;9924;50.828;6.440;2023-07-13T16:23:50;22.00;99.90
19555;DHT22;9924;50.828;6.440;2023-07-13T16:26:28;22.10;99.90
19555;DHT22;9924;50.828;6.440;2023-07-13T16:29:13;22.00;99.90
19555;DHT22;9924;50.828;6.440;2023-07-13T16:31:39;22.20;99.90
19555;DHT22;9924;50.828;6.440;2023-07-13T16:34:05;22.80;99.90
19555;DHT22;9924;50.828;6.440;2023-07-13T16:36:34;23.50;99.90
19555;DHT22;9924;50.828;6.440;2023-07-13T16:39:01;24.10;99.90